Time;durP1;ratioP1;P1;durP2;ratioP2;P2;SDS_P1;SDS_P2;PMS_P1;PMS_P2;Temp;Humidity;BMP_temperature;BMP_pressure;BME280_temperature;BME280_humidity;BME280_pressure;Samples;Min_cycle;Max_cycle;Signal;HPM_P1;HPM_P2
2021/12/30 00:00:37;;;;;;;1.40;1.30;;;;;;;15.90;50.30;96556.19;4890808;29;20206;-86
2021/12/30 00:03:04;;;;;;;1.40;1.30;;;;;;;18.88;50.46;97023.63;4876437;29;20257;-88
2021/12/30 00:05:32;;;;;;;1.30;1.20;;;;;;;13.72;49.77;96222.50;4888326;29;20218;-88
2021/12/30 00:07:59;;;;;;;1.47;1.37;;;;;;;15.30;50.07;96402.91;4889682;29;20221;-87
2021/12/30 00:10:25;;;;;;;1.37;1.27;;;;;;;19.45;50.30;97109.56;4889677;29;20206;-87
2021/12/30 00:12:53;;;;;;;1.30;1.20;;;;;;;17.87;50.43;96854.94;4891265;29;20213;-89
2021/12/30 00:15:20;;;;;;;1.30;1.20;;;;;;;16.82;50.27;96660.88;4890135;29;20751;-81
2021/12/30 00:17:46;;;;;;;1.80;1.40;;;;;;;18.37;50.20;96932.84;4888316;29;20220;-81
2021/12/30 00:20:13;;;;;;;1.20;1.20;;;;;;;15.08;50.05;96366.66;4872989;29;20233;-81
2021/12/30 00:22:41;;;;;;;1.40;1.30;;;;;;;18.81;50.28;97008.97;4885453;29;20253;-81
2021/12/30 00:25:09;;;;;;;1.00;1.00;;;;;;;18.15;49.96;96924.53;4886201;29;20704;-80
2021/12/30 00:27:35;;;;;;;1.17;1.17;;;;;;;17.04;50.09;96709.00;4884618;29;20245;-81
2021/12/30 00:30:03;;;;;;;1.40;1.30;;;;;;;18.04;50.05;96882.66;4885143;29;20222;-81
2021/12/30 00:32:30;;;;;;;1.10;1.10;;;;;;;16.98;49.94;96694.44;4869777;29;20203;-81
2021/12/30 00:34:57;;;;;;;1.17;1.10;;;;;;;17.16;49.90;96732.25;4894175;29;20654;-82
2021/12/30 00:37:23;;;;;;;1.20;1.10;;;;;;;19.51;50.05;97143.72;4884856;29;20214;-81
2021/12/30 00:39:50;;;;;;;1.50;1.07;;;;;;;17.12;50.00;96733.84;4876549;29;20193;-81
2021/12/30 00:42:16;;;;;;;1.40;1.30;;;;;;;18.47;50.19;96973.09;4887057;29;20264;-81
2021/12/30 00:44:43;;;;;;;1.40;1.30;;;;;;;18.92;49.96;97038.19;4871133;29;20316;-80
2021/12/30 00:47:10;;;;;;;1.30;1.20;;;;;;;19.21;50.15;97134.19;4892725;29;20206;-80
2021/12/30 00:49:36;;;;;;;1.23;1.13;;;;;;;15.04;49.88;96390.97;4892772;29;20260;-81
2021/12/30 00:52:05;;;;;;;1.40;1.30;;;;;;;18.46;50.00;96977.31;4912964;29;20653;-81
2021/12/30 00:54:32;;;;;;;1.20;1.20;;;;;;;19.50;50.00;97164.94;4901491;29;20277;-80
2021/12/30 00:56:59;;;;;;;1.37;1.27;;;;;;;19.49;49.98;97169.97;4869595;29;20241;-80
2021/12/30 00:59:26;;;;;;;1.10;1.10;;;;;;;19.51;49.96;97191.28;4886172;29;20277;-81
2021/12/30 01:01:52;;;;;;;1.40;1.30;;;;;;;18.51;49.98;97010.53;4883995;29;20310;-81
2021/12/30 01:04:20;;;;;;;1.40;1.30;;;;;;;17.98;50.24;96922.25;4881564;29;20221;-81
2021/12/30 01:06:47;;;;;;;1.37;1.27;;;;;;;18.74;49.90;97074.09;4888992;29;20206;-79
2021/12/30 01:09:13;;;;;;;1.30;1.20;;;;;;;19.47;50.02;97190.31;4896859;29;20606;-81
2021/12/30 01:11:40;;;;;;;1.20;1.10;;;;;;;19.46;50.04;97198.78;4893906;29;20239;-81
2021/12/30 01:14:20;;;;;;;1.40;1.30;;;;;;;19.23;50.05;97166.56;4913251;23;21163;-81
2021/12/30 01:16:50;;;;;;;1.67;1.40;;;;;;;19.12;50.01;97152.59;4858742;29;20330;-81
2021/12/30 01:22:02;;;;;;;1.30;1.20;;;;;;;18.58;50.14;97065.88;4874856;29;20265;-82
2021/12/30 01:24:29;;;;;;;1.10;1.10;;;;;;;16.76;50.03;96770.63;4848213;29;20254;-82
2021/12/30 01:26:56;;;;;;;1.20;1.10;;;;;;;18.65;49.57;97090.75;4861422;29;20297;-82
2021/12/30 01:29:24;;;;;;;1.10;1.10;;;;;;;18.06;50.03;96982.69;4831993;29;20935;-82
2021/12/30 01:31:51;;;;;;;1.40;1.30;;;;;;;18.87;50.36;97126.28;4880225;29;20238;-82
2021/12/30 01:34:20;;;;;;;1.30;1.20;;;;;;;18.96;50.15;97129.13;4878987;29;20234;-82
2021/12/30 01:36:47;;;;;;;1.30;1.20;;;;;;;18.68;50.20;97094.25;4846849;29;20234;-80
2021/12/30 01:39:13;;;;;;;1.27;1.17;;;;;;;18.77;50.14;97112.38;4832900;29;20608;-82
2021/12/30 01:41:41;;;;;;;1.23;1.13;;;;;;;19.28;50.31;97207.50;4843323;29;20227;-80
2021/12/30 01:44:08;;;;;;;1.30;1.20;;;;;;;19.02;50.17;97167.53;4860624;29;20235;-82
2021/12/30 01:46:38;;;;;;;1.07;1.07;;;;;;;18.91;50.24;97161.19;4846988;29;20238;-82
2021/12/30 01:49:05;;;;;;;1.10;1.10;;;;;;;19.05;50.10;97176.16;4864898;29;20598;-83
2021/12/30 01:51:32;;;;;;;1.27;1.20;;;;;;;17.84;49.71;96987.88;4845124;29;20238;-82
2021/12/30 01:53:58;;;;;;;1.00;1.00;;;;;;;18.57;50.13;97105.75;4830072;29;20245;-83
2021/12/30 01:56:25;;;;;;;1.17;0.97;;;;;;;19.10;50.16;97184.78;4873007;29;20182;-88
2021/12/30 01:59:06;;;;;;;1.03;1.00;;;;;;;19.12;50.27;97205.22;4898049;29;20206;-88
2021/12/30 02:01:35;;;;;;;1.30;1.20;;;;;;;17.17;50.70;96916.78;4894889;29;20252;-88
2021/12/30 02:04:02;;;;;;;1.17;1.10;;;;;;;15.36;50.05;96592.94;4872858;29;20221;-89
2021/12/30 02:06:28;;;;;;;1.20;1.10;;;;;;;15.11;49.69;96591.94;4888148;29;20191;-88
2021/12/30 02:08:55;;;;;;;1.33;1.10;;;;;;;12.19;50.32;96012.03;4857519;29;20195;-89
2021/12/30 02:11:22;;;;;;;1.30;1.20;;;;;;;11.60;50.08;95950.78;4887397;29;20199;-86
2021/12/30 02:13:50;;;;;;;1.03;1.03;;;;;;;19.18;50.58;97244.50;4886582;29;20179;-88
2021/12/30 02:16:17;;;;;;;1.60;1.20;;;;;;;12.78;50.11;96186.66;4857741;29;20227;-87
2021/12/30 02:18:46;;;;;;;1.10;1.10;;;;;;;18.12;50.07;97049.03;4857069;29;20310;-81
2021/12/30 02:21:13;;;;;;;2.00;1.10;;;;;;;17.96;50.07;97034.06;4870459;29;20234;-81
2021/12/30 02:23:39;;;;;;;1.30;1.23;;;;;;;18.24;50.31;97067.25;4848236;29;20226;-81
2021/12/30 02:26:17;;;;;;;1.30;1.20;;;;;;;18.39;50.12;97094.06;4863505;29;20317;-82
2021/12/30 02:28:44;;;;;;;1.10;1.10;;;;;;;18.46;50.04;97101.97;4845728;29;20213;-82
2021/12/30 02:31:16;;;;;;;1.10;1.10;;;;;;;19.43;50.09;97284.47;4855957;29;20210;-83
2021/12/30 02:33:43;;;;;;;1.20;1.10;;;;;;;18.65;49.96;97162.00;4863611;29;20202;-85
2021/12/30 02:36:12;;;;;;;2.07;1.13;;;;;;;18.27;50.13;97094.50;4863986;29;20230;-82
2021/12/30 02:38:44;;;;;;;1.10;1.10;;;;;;;19.04;49.96;97232.97;4860626;29;20234;-82
2021/12/30 02:41:14;;;;;;;1.00;1.00;;;;;;;18.90;50.12;97206.19;4842301;29;20246;-82
2021/12/30 02:43:41;;;;;;;1.33;1.23;;;;;;;19.03;49.91;97226.16;4876540;29;20229;-82
2021/12/30 02:46:08;;;;;;;1.23;1.10;;;;;;;18.38;50.07;97121.19;4862814;29;20259;-82
2021/12/30 02:48:35;;;;;;;1.30;1.20;;;;;;;18.13;50.14;97132.16;4880499;29;20210;-81
2021/12/30 02:51:05;;;;;;;1.30;1.20;;;;;;;19.08;49.74;97249.22;4844971;29;20231;-83
2021/12/30 02:53:31;;;;;;;1.17;1.10;;;;;;;19.09;49.98;97250.94;4877280;29;20225;-82
2021/12/30 02:55:58;;;;;;;1.10;1.10;;;;;;;18.85;49.98;97237.38;4863165;29;20284;-84
2021/12/30 02:58:25;;;;;;;0.90;0.90;;;;;;;19.08;49.91;97256.88;4863966;29;20245;-82
2021/12/30 03:01:13;;;;;;;1.00;1.00;;;;;;;19.54;49.81;97337.50;4859966;29;20282;-82
2021/12/30 03:03:40;;;;;;;0.90;0.90;;;;;;;18.80;49.70;97204.13;4872231;29;20241;-84
2021/12/30 03:06:09;;;;;;;1.23;1.17;;;;;;;17.95;49.86;97051.81;4855681;29;20258;-81
2021/12/30 03:08:36;;;;;;;1.30;1.20;;;;;;;16.20;49.67;96752.44;4860433;29;20235;-84
2021/12/30 03:11:03;;;;;;;1.00;1.00;;;;;;;18.97;49.84;97235.25;4837240;29;20295;-81
2021/12/30 03:13:33;;;;;;;1.20;1.10;;;;;;;18.43;49.86;97145.13;4857109;29;20263;-83
2021/12/30 03:16:04;;;;;;;0.90;0.90;;;;;;;18.04;49.79;97075.88;4880404;29;20237;-82
2021/12/30 03:18:32;;;;;;;0.90;0.90;;;;;;;18.22;49.79;97131.59;4861378;29;20210;-82
2021/12/30 03:21:02;;;;;;;1.20;1.10;;;;;;;19.50;49.84;97335.69;4842175;29;20678;-82
2021/12/30 03:23:29;;;;;;;1.00;1.00;;;;;;;19.33;49.85;97329.13;4857931;29;20254;-81
2021/12/30 03:25:56;;;;;;;0.90;0.90;;;;;;;18.94;49.70;97276.75;4870503;29;20282;-84
2021/12/30 03:28:22;;;;;;;1.00;1.00;;;;;;;18.54;49.93;97215.06;4861552;29;20245;-82
2021/12/30 03:30:49;;;;;;;1.17;1.07;;;;;;;19.23;49.95;97342.34;4853895;29;20274;-82
2021/12/30 03:33:16;;;;;;;1.27;1.10;;;;;;;16.16;49.81;96814.81;4858951;29;20332;-83
2021/12/30 03:35:43;;;;;;;1.00;1.00;;;;;;;18.06;49.77;97137.81;4842868;29;20660;-82
2021/12/30 03:38:09;;;;;;;1.20;1.10;;;;;;;17.16;49.90;96987.00;4827541;29;20690;-82
2021/12/30 03:40:39;;;;;;;1.00;1.00;;;;;;;18.57;49.80;97250.81;4869978;29;20705;-82
2021/12/30 03:43:05;;;;;;;1.13;1.07;;;;;;;18.18;49.84;97171.31;4870615;29;20230;-81
2021/12/30 03:45:32;;;;;;;0.87;0.87;;;;;;;18.74;50.04;97274.34;4867535;29;20258;-82
2021/12/30 03:47:59;;;;;;;0.90;0.90;;;;;;;18.50;50.13;97245.44;4873861;29;20211;-82
2021/12/30 03:50:27;;;;;;;1.10;1.10;;;;;;;18.57;50.20;97265.22;4849182;29;20748;-82
2021/12/30 03:52:56;;;;;;;1.37;1.23;;;;;;;18.71;50.52;97302.22;4842730;29;20207;-82
2021/12/30 03:55:34;;;;;;;0.90;0.90;;;;;;;17.98;50.22;97200.25;4842851;29;20345;-87
2021/12/30 03:58:14;;;;;;;0.90;0.90;;;;;;;16.43;50.56;96950.28;4874998;29;20195;-89
2021/12/30 04:00:41;;;;;;;1.00;1.00;;;;;;;16.37;49.94;96955.09;4863855;29;20194;-89
2021/12/30 04:03:08;;;;;;;1.00;1.00;;;;;;;15.34;50.30;96781.00;4873060;29;20216;-87
2021/12/30 04:05:38;;;;;;;1.07;1.00;;;;;;;11.77;50.24;96119.31;4888967;29;20243;-89
2021/12/30 04:08:07;;;;;;;0.90;0.90;;;;;;;14.86;50.19;96708.13;4901453;29;20190;-88
2021/12/30 04:10:50;;;;;;;1.27;1.17;;;;;;;17.57;50.21;97232.47;4900909;29;20307;-89
2021/12/30 04:13:17;;;;;;;1.10;1.10;;;;;;;16.03;50.46;96908.91;4869769;29;20195;-88
2021/12/30 04:15:44;;;;;;;1.07;1.07;;;;;;;12.24;50.21;96233.03;4871283;29;20215;-88
2021/12/30 04:18:10;;;;;;;1.03;1.03;;;;;;;15.22;50.54;96794.00;4871172;29;20191;-88
2021/12/30 04:20:37;;;;;;;0.90;0.90;;;;;;;15.29;50.03;96802.72;4870780;29;20203;-88
2021/12/30 04:23:07;;;;;;;1.20;1.10;;;;;;;13.71;50.39;96581.75;4874767;29;20207;-89
2021/12/30 04:25:35;;;;;;;1.17;1.07;;;;;;;15.09;50.27;96769.00;4889306;29;20251;-88
2021/12/30 04:28:01;;;;;;;1.10;1.10;;;;;;;13.15;50.35;96482.50;4904346;29;20207;-88
2021/12/30 04:30:28;;;;;;;1.00;1.00;;;;;;;11.45;50.08;96222.59;4865547;29;20245;-82
2021/12/30 04:32:55;;;;;;;1.10;1.10;;;;;;;13.86;50.35;96571.50;4857683;29;20247;-82
2021/12/30 04:35:22;;;;;;;1.00;1.00;;;;;;;15.64;50.30;96859.16;4856518;29;20655;-82
2021/12/30 04:37:48;;;;;;;1.00;1.00;;;;;;;18.68;50.47;97398.84;4862860;29;20234;-82
2021/12/30 04:40:15;;;;;;;0.90;0.90;;;;;;;17.85;50.31;97268.31;4896122;29;20369;-82
2021/12/30 04:42:42;;;;;;;0.93;0.93;;;;;;;18.11;50.28;97298.19;4863285;29;20266;-82
2021/12/30 04:45:11;;;;;;;1.00;1.00;;;;;;;16.08;49.98;97013.84;4863754;29;20682;-83
2021/12/30 04:47:47;;;;;;;2.37;1.20;;;;;;;17.14;50.33;97151.09;4861332;29;20700;-84
2021/12/30 04:50:13;;;;;;;1.00;1.00;;;;;;;18.52;50.31;97388.84;4863248;29;20217;-82
2021/12/30 04:52:40;;;;;;;1.07;1.07;;;;;;;17.47;50.25;97204.97;4878865;29;20213;-81
2021/12/30 04:55:07;;;;;;;0.97;0.97;;;;;;;18.37;50.19;97355.16;4878356;29;20286;-82
2021/12/30 04:57:34;;;;;;;1.20;1.10;;;;;;;19.12;50.15;97490.50;4878293;29;20214;-83
2021/12/30 05:00:01;;;;;;;1.00;0.90;;;;;;;19.02;50.13;97478.22;4829381;29;20856;-82
2021/12/30 05:02:38;;;;;;;0.90;0.90;;;;;;;19.46;50.06;97555.59;4859900;29;20207;-83
2021/12/30 05:05:06;;;;;;;1.60;1.00;;;;;;;19.04;50.03;97479.16;4860712;29;20227;-83
2021/12/30 05:07:32;;;;;;;1.07;1.07;;;;;;;19.07;49.99;97494.56;4859796;29;20325;-83
2021/12/30 05:10:02;;;;;;;0.90;0.90;;;;;;;18.93;49.96;97467.69;4876389;29;20685;-83
2021/12/30 05:12:29;;;;;;;0.83;0.83;;;;;;;19.25;50.17;97520.75;4877822;29;20202;-83
2021/12/30 05:14:55;;;;;;;1.00;1.00;;;;;;;18.55;49.93;97396.59;4844130;29;20686;-83
2021/12/30 05:17:29;;;;;;;1.10;1.10;;;;;;;18.51;50.04;97422.75;4859965;29;20210;-82
2021/12/30 05:19:55;;;;;;;1.07;1.00;;;;;;;17.19;50.12;97191.91;4851599;29;20235;-82
2021/12/30 05:22:22;;;;;;;0.90;0.90;;;;;;;19.07;50.10;97494.56;4862564;29;20270;-82
2021/12/30 05:24:49;;;;;;;0.93;0.93;;;;;;;18.38;50.17;97387.47;4858605;29;20235;-82
2021/12/30 05:27:17;;;;;;;0.90;0.90;;;;;;;19.22;50.12;97529.13;4859469;29;20329;-84
2021/12/30 05:29:43;;;;;;;1.20;1.10;;;;;;;16.83;50.19;97129.47;4876644;29;20206;-82
2021/12/30 05:32:10;;;;;;;1.00;1.00;;;;;;;19.42;50.16;97571.56;4859626;29;20661;-83
2021/12/30 05:34:36;;;;;;;1.00;1.00;;;;;;;18.31;50.17;97380.34;4875805;29;20311;-82
2021/12/30 05:37:03;;;;;;;1.00;1.00;;;;;;;18.75;50.07;97465.31;4882857;29;20241;-79
2021/12/30 05:39:30;;;;;;;1.00;1.00;;;;;;;18.59;50.09;97445.13;4847348;29;20266;-83
2021/12/30 05:41:57;;;;;;;1.00;1.00;;;;;;;18.23;50.02;97384.28;4859150;29;20293;-82
2021/12/30 05:44:23;;;;;;;0.90;0.90;;;;;;;18.97;50.36;97515.38;4856678;29;20311;-82
2021/12/30 05:46:50;;;;;;;1.00;1.00;;;;;;;18.73;50.39;97477.09;4844233;29;20911;-82
2021/12/30 05:49:17;;;;;;;0.90;0.90;;;;;;;18.89;50.15;97501.50;4832044;29;20203;-83
2021/12/30 05:51:44;;;;;;;1.00;1.00;;;;;;;18.87;50.32;97503.09;4859529;29;20211;-82
2021/12/30 05:54:10;;;;;;;0.70;0.70;;;;;;;17.84;50.23;97346.25;4859189;29;20259;-82
2021/12/30 05:56:37;;;;;;;1.10;1.10;;;;;;;17.91;50.05;97342.28;4859118;29;20214;-83
2021/12/30 05:59:04;;;;;;;1.00;0.93;;;;;;;18.23;50.14;97404.63;4870958;29;20210;-80
2021/12/30 06:01:30;;;;;;;1.07;0.70;;;;;;;19.43;50.00;97610.66;4858774;29;20238;-82
2021/12/30 06:04:01;;;;;;;0.90;0.90;;;;;;;18.93;50.05;97522.03;4864968;29;20310;-82
2021/12/30 06:06:28;;;;;;;0.80;0.80;;;;;;;17.94;50.03;97338.19;4875496;29;20632;-82
2021/12/30 06:08:58;;;;;;;0.90;0.90;;;;;;;19.06;50.24;97538.66;4830842;29;20249;-82
2021/12/30 06:11:25;;;;;;;0.90;0.90;;;;;;;19.20;50.28;97557.91;4859281;29;20737;-79
2021/12/30 06:13:52;;;;;;;1.00;1.00;;;;;;;19.05;50.19;97544.56;4874628;29;20226;-82
2021/12/30 06:16:19;;;;;;;1.20;1.10;;;;;;;18.96;50.15;97531.47;4842403;29;20250;-83
2021/12/30 06:18:45;;;;;;;0.90;0.90;;;;;;;18.77;49.93;97518.84;4889842;29;20234;-81
2021/12/30 06:21:12;;;;;;;1.00;1.00;;;;;;;17.89;50.07;97359.16;4861435;29;20261;-79
2021/12/30 06:23:39;;;;;;;0.90;0.90;;;;;;;19.23;50.16;97583.50;4888236;29;20285;-84
2021/12/30 06:26:05;;;;;;;1.03;1.03;;;;;;;17.85;49.96;97349.66;4858748;29;20298;-82
2021/12/30 06:28:32;;;;;;;0.97;0.97;;;;;;;19.16;50.13;97573.88;4858375;29;20235;-81
2021/12/30 06:30:59;;;;;;;0.90;0.90;;;;;;;19.47;50.08;97626.13;4874855;29;20227;-82
2021/12/30 06:33:25;;;;;;;1.10;1.07;;;;;;;18.38;50.14;97463.78;4874660;29;20302;-82
2021/12/30 06:35:52;;;;;;;0.90;0.90;;;;;;;19.35;50.16;97612.03;4842822;29;20792;-82
2021/12/30 06:38:18;;;;;;;1.10;1.10;;;;;;;17.51;49.90;97299.16;4874804;29;20237;-83
2021/12/30 06:40:45;;;;;;;1.20;1.10;;;;;;;16.58;50.02;97141.97;4857946;29;20258;-82
2021/12/30 06:43:12;;;;;;;0.80;0.80;;;;;;;18.93;49.98;97539.88;4861182;29;20202;-82
2021/12/30 06:45:38;;;;;;;0.90;0.90;;;;;;;19.05;50.12;97559.84;4895851;29;20677;-82
2021/12/30 06:48:06;;;;;;;1.13;1.10;;;;;;;18.85;50.17;97531.03;4894988;29;20689;-82
2021/12/30 06:50:34;;;;;;;0.87;0.87;;;;;;;19.51;50.05;97652.63;4895578;29;20209;-82
2021/12/30 06:53:06;;;;;;;1.00;1.00;;;;;;;18.11;49.94;97420.25;4895544;29;20719;-82
2021/12/30 06:55:42;;;;;;;0.80;0.80;;;;;;;18.93;50.05;97562.78;4895825;29;20677;-82
2021/12/30 06:58:14;;;;;;;0.90;0.90;;;;;;;19.00;50.10;97574.94;4887013;29;20234;-82
2021/12/30 07:00:40;;;;;;;0.93;0.93;;;;;;;17.03;50.09;97232.72;4901008;29;20234;-83
2021/12/30 07:03:07;;;;;;;0.80;0.80;;;;;;;19.02;49.95;97585.19;4879382;29;20304;-84
2021/12/30 07:05:34;;;;;;;1.00;0.90;;;;;;;19.27;49.98;97637.22;4879015;29;20715;-83
2021/12/30 07:08:01;;;;;;;0.80;0.80;;;;;;;18.84;49.94;97562.41;4894050;29;20281;-82
2021/12/30 07:10:27;;;;;;;0.90;0.90;;;;;;;19.30;49.96;97641.59;4884400;29;20567;-82
2021/12/30 07:12:54;;;;;;;1.33;1.20;;;;;;;19.51;50.03;97684.06;4861455;29;20261;-84
2021/12/30 07:15:21;;;;;;;0.90;0.90;;;;;;;18.68;50.22;97539.69;4863191;29;20325;-83
2021/12/30 07:17:47;;;;;;;0.87;0.87;;;;;;;19.51;50.06;97688.31;4887800;29;20715;-82
2021/12/30 07:20:14;;;;;;;1.03;0.90;;;;;;;18.78;50.03;97564.72;4888785;29;20799;-84
2021/12/30 07:22:41;;;;;;;1.03;1.00;;;;;;;19.00;50.19;97602.97;4845153;29;20221;-81
2021/12/30 07:25:17;;;;;;;0.70;0.70;;;;;;;18.91;50.11;97584.75;4862185;29;20237;-82
2021/12/30 07:27:48;;;;;;;0.80;0.80;;;;;;;19.19;50.04;97632.59;4870399;29;20233;-84
2021/12/30 07:30:15;;;;;;;0.90;0.90;;;;;;;19.26;50.18;97644.75;4886676;29;20232;-83
2021/12/30 07:32:42;;;;;;;1.00;1.00;;;;;;;19.13;49.94;97633.19;4885532;29;20237;-82
2021/12/30 07:35:09;;;;;;;0.80;0.80;;;;;;;19.04;50.24;97603.97;4858955;29;20734;-82
2021/12/30 07:37:36;;;;;;;1.03;0.97;;;;;;;18.81;50.74;97569.06;4873823;29;20623;-83
2021/12/30 07:40:03;;;;;;;0.80;0.80;;;;;;;19.32;50.27;97662.88;4855055;29;20654;-82
2021/12/30 07:42:30;;;;;;;0.80;0.80;;;;;;;19.01;50.27;97617.41;4892593;29;20233;-79
2021/12/30 07:44:56;;;;;;;0.73;0.73;;;;;;;18.13;50.49;97477.13;4907779;29;20221;-83
2021/12/30 07:47:23;;;;;;;0.80;0.80;;;;;;;18.13;50.50;97477.13;4886007;29;20209;-81
2021/12/30 07:49:49;;;;;;;1.00;1.00;;;;;;;18.91;50.55;97620.41;4875840;29;20304;-82
2021/12/30 07:52:16;;;;;;;0.90;0.90;;;;;;;19.37;50.50;97691.97;4875736;29;20311;-82
2021/12/30 07:54:44;;;;;;;1.37;1.20;;;;;;;18.94;52.22;97618.00;4860802;29;20662;-83
2021/12/30 07:57:18;;;;;;;2.70;1.20;;;;;;;19.25;54.40;97682.13;4863272;29;20202;-83
2021/12/30 07:59:44;;;;;;;1.30;1.20;;;;;;;19.13;55.48;97663.78;4879083;29;20801;-81
2021/12/30 08:02:11;;;;;;;1.40;1.30;;;;;;;19.39;56.51;97700.56;4874791;29;20301;-80
2021/12/30 08:04:38;;;;;;;1.10;1.10;;;;;;;18.82;56.83;97603.88;4874087;29;20787;-83
2021/12/30 08:07:04;;;;;;;1.10;1.10;;;;;;;18.88;57.25;97633.03;4871180;29;20230;-82
2021/12/30 08:09:31;;;;;;;1.37;1.20;;;;;;;19.08;57.16;97656.75;4872469;29;20234;-85
2021/12/30 08:11:59;;;;;;;1.30;1.20;;;;;;;19.18;56.54;97679.25;4865596;29;20658;-84
2021/12/30 08:14:27;;;;;;;1.90;1.43;;;;;;;18.63;56.17;97581.91;4895262;29;20240;-83
2021/12/30 08:16:54;;;;;;;2.13;1.20;;;;;;;18.65;55.87;97593.00;4876662;29;20289;-84
2021/12/30 08:19:20;;;;;;;1.60;1.10;;;;;;;18.87;55.54;97632.97;4862741;29;20245;-83
2021/12/30 08:21:48;;;;;;;1.37;1.27;;;;;;;19.29;55.29;97717.16;4862785;29;20613;-83
2021/12/30 08:24:14;;;;;;;1.37;1.20;;;;;;;18.42;54.88;97558.13;4862925;29;20368;-84
2021/12/30 08:27:01;;;;;;;1.13;1.03;;;;;;;18.87;54.70;97635.50;4907121;29;20229;-84
2021/12/30 08:29:31;;;;;;;1.23;1.13;;;;;;;18.98;54.29;97654.66;4880665;29;20297;-82
2021/12/30 08:31:58;;;;;;;1.20;1.10;;;;;;;18.83;54.18;97628.56;4884644;29;20214;-83
2021/12/30 08:34:24;;;;;;;1.03;1.03;;;;;;;19.27;53.73;97702.63;4855938;29;20627;-83
2021/12/30 08:36:51;;;;;;;1.53;1.13;;;;;;;18.82;53.94;97627.69;4879768;29;20241;-83
2021/12/30 08:39:17;;;;;;;1.20;1.10;;;;;;;18.90;53.62;97649.25;4873133;29;20245;-83
2021/12/30 08:41:44;;;;;;;1.00;1.00;;;;;;;18.94;53.76;97662.94;4877448;29;20233;-82
2021/12/30 08:44:11;;;;;;;1.03;1.03;;;;;;;19.26;53.55;97704.25;4860752;29;20747;-84
2021/12/30 08:46:38;;;;;;;1.57;1.20;;;;;;;18.64;53.30;97609.09;4874793;29;20245;-84
2021/12/30 08:49:04;;;;;;;1.00;1.00;;;;;;;18.67;53.50;97610.88;4874078;29;20224;-83
2021/12/30 08:51:31;;;;;;;1.40;1.27;;;;;;;19.04;53.23;97671.03;4883200;29;20309;-83
2021/12/30 08:53:57;;;;;;;1.53;1.20;;;;;;;19.00;53.25;97666.63;4858934;29;20238;-82
2021/12/30 08:56:24;;;;;;;0.90;0.90;;;;;;;18.78;52.78;97635.13;4888491;29;20317;-82
2021/12/30 08:58:51;;;;;;;0.97;0.97;;;;;;;18.81;53.01;97635.25;4878662;29;20242;-82
2021/12/30 09:01:17;;;;;;;1.40;1.30;;;;;;;18.65;52.73;97613.38;4865995;29;20247;-82
2021/12/30 09:03:44;;;;;;;1.53;1.10;;;;;;;19.03;52.60;97686.25;4866798;29;20218;-82
2021/12/30 09:06:11;;;;;;;1.20;1.10;;;;;;;18.81;52.76;97640.34;4895650;29;20234;-84
2021/12/30 09:08:37;;;;;;;1.00;1.00;;;;;;;19.05;52.49;97689.75;4897317;29;20744;-82
2021/12/30 09:11:04;;;;;;;1.10;1.10;;;;;;;19.02;52.57;97692.16;4880632;29;20697;-84
2021/12/30 09:13:32;;;;;;;2.27;1.33;;;;;;;19.02;52.58;97693.03;4882634;29;20208;-82
2021/12/30 09:15:58;;;;;;;1.50;1.07;;;;;;;18.96;52.62;97686.81;4891536;29;20257;-81
2021/12/30 09:18:25;;;;;;;0.90;0.90;;;;;;;18.88;52.56;97655.06;4874377;29;20642;-83
2021/12/30 09:20:52;;;;;;;1.23;1.13;;;;;;;18.96;52.40;97661.34;4861318;29;20214;-84
2021/12/30 09:23:18;;;;;;;2.37;1.20;;;;;;;17.72;52.35;97449.97;4865795;29;20249;-83
2021/12/30 09:25:45;;;;;;;1.80;1.17;;;;;;;17.73;52.61;97450.81;4876166;29;20234;-81
2021/12/30 09:28:12;;;;;;;7.17;1.17;;;;;;;18.74;52.08;97630.72;4862866;29;20294;-80
2021/12/30 09:30:40;;;;;;;2.80;0.90;;;;;;;19.13;51.98;97696.88;4863259;29;20271;-82
2021/12/30 09:33:07;;;;;;;1.20;1.10;;;;;;;19.26;52.17;97718.66;4863617;29;20249;-80
2021/12/30 09:35:33;;;;;;;1.07;1.07;;;;;;;18.74;52.12;97623.94;4880012;29;20222;-80
2021/12/30 09:38:00;;;;;;;1.00;1.00;;;;;;;18.89;51.79;97655.13;4897096;29;20245;-83
2021/12/30 09:40:27;;;;;;;1.03;0.90;;;;;;;19.03;51.84;97668.44;4882305;29;20292;-82
2021/12/30 09:43:01;;;;;;;1.20;1.07;;;;;;;19.01;51.78;97667.50;4862163;29;20684;-82
2021/12/30 09:45:29;;;;;;;1.03;1.00;;;;;;;18.86;51.80;97643.97;4862326;29;20233;-80
2021/12/30 09:47:56;;;;;;;1.07;1.00;;;;;;;19.05;51.85;97685.53;4847613;29;20217;-82
2021/12/30 09:50:26;;;;;;;1.10;1.10;;;;;;;18.79;51.58;97627.56;4862844;29;20590;-80
2021/12/30 09:52:52;;;;;;;2.10;1.23;;;;;;;17.08;51.50;97333.63;4882945;29;20199;-82
2021/12/30 09:55:19;;;;;;;1.10;1.00;;;;;;;17.86;51.53;97486.13;4896624;29;20265;-83
2021/12/30 09:57:46;;;;;;;2.03;1.00;;;;;;;18.04;51.57;97518.31;4875445;29;20285;-84
2021/12/30 10:00:13;;;;;;;2.07;1.07;;;;;;;19.23;51.63;97703.25;4875312;29;20269;-83
2021/12/30 10:02:40;;;;;;;0.97;0.97;;;;;;;18.93;51.60;97643.41;4862007;29;20297;-82
2021/12/30 10:05:09;;;;;;;1.00;1.00;;;;;;;17.46;51.31;97398.81;4893427;29;20237;-87
2021/12/30 10:07:41;;;;;;;2.53;1.10;;;;;;;14.19;51.32;96823.06;4891903;29;20208;-89
2021/12/30 10:10:27;;;;;;;1.00;1.00;;;;;;;19.39;51.39;97726.91;4905048;29;20190;-88
2021/12/30 10:12:54;;;;;;;2.43;1.00;;;;;;;18.45;51.41;97562.44;4921372;29;20214;-88
2021/12/30 10:15:24;;;;;;;1.30;1.10;;;;;;;16.85;51.30;97286.09;4915434;29;20214;-88
2021/12/30 10:17:55;;;;;;;1.10;1.00;;;;;;;16.98;51.16;97307.78;4918423;29;20214;-89
2021/12/30 10:20:27;;;;;;;0.93;0.90;;;;;;;13.38;51.25;96719.00;4902383;29;20235;-89
2021/12/30 10:22:56;;;;;;;0.83;0.83;;;;;;;15.21;50.95;97004.88;4903534;29;20189;-85
2021/12/30 10:25:29;;;;;;;1.07;1.00;;;;;;;17.62;51.08;97496.09;4901732;29;20268;-88
2021/12/30 10:27:56;;;;;;;1.27;0.93;;;;;;;19.20;51.03;97695.47;4902658;29;20209;-88
2021/12/30 10:30:32;;;;;;;0.90;0.90;;;;;;;16.16;51.08;97162.09;4916214;29;20226;-87
2021/12/30 10:33:19;;;;;;;0.90;0.90;;;;;;;16.60;51.19;97269.69;4897153;29;20194;-89
2021/12/30 10:35:46;;;;;;;1.00;1.00;;;;;;;16.54;51.01;97229.72;4886397;29;20248;-86
2021/12/30 10:38:14;;;;;;;0.80;0.80;;;;;;;15.22;50.85;96996.47;4918618;29;20206;-89
2021/12/30 10:40:43;;;;;;;0.77;0.77;;;;;;;15.62;50.66;97101.34;4904533;29;20674;-87
2021/12/30 10:43:26;;;;;;;1.00;0.97;;;;;;;19.46;50.92;97734.00;4895671;29;20246;-87
2021/12/30 10:46:16;;;;;;;1.27;1.10;;;;;;;19.48;50.89;97750.22;4901727;29;20210;-88
2021/12/30 10:48:59;;;;;;;1.00;1.00;;;;;;;19.50;50.81;97745.19;4904238;29;20189;-89
2021/12/30 10:51:43;;;;;;;1.13;1.00;;;;;;;14.52;50.74;96946.84;4901547;29;20190;-87
2021/12/30 10:54:26;;;;;;;1.17;1.00;;;;;;;15.26;50.62;97012.69;4898198;29;20189;-86
2021/12/30 10:57:00;;;;;;;0.90;0.90;;;;;;;14.25;50.39;96942.13;4918170;29;20205;-85
2021/12/30 10:59:48;;;;;;;0.90;0.90;;;;;;;19.54;50.59;97744.50;4892938;29;20198;-88
2021/12/30 11:02:22;;;;;;;1.10;1.00;;;;;;;17.95;50.50;97478.91;4903347;29;20210;-87
2021/12/30 11:05:04;;;;;;;3.60;0.90;;;;;;;15.35;50.56;97023.22;4902991;29;20233;-87
2021/12/30 11:07:48;;;;;;;1.00;0.90;;;;;;;12.00;50.25;96440.88;4910369;29;20205;-88
2021/12/30 11:10:16;;;;;;;0.90;0.90;;;;;;;17.85;49.99;97492.88;4908110;29;20207;-88
2021/12/30 11:12:45;;;;;;;1.00;1.00;;;;;;;15.16;50.38;97072.13;4895519;29;20234;-85
2021/12/30 11:15:23;;;;;;;0.93;0.80;;;;;;;16.53;50.45;97296.50;4904211;29;20213;-88
2021/12/30 11:17:50;;;;;;;1.03;1.03;;;;;;;16.64;50.38;97236.94;4888163;29;20184;-85
2021/12/30 11:20:18;;;;;;;1.80;0.90;;;;;;;13.74;50.20;96801.53;4905977;29;20213;-88
2021/12/30 11:22:46;;;;;;;0.93;0.93;;;;;;;16.89;50.46;97277.81;4904245;29;20313;-88
2021/12/30 11:25:15;;;;;;;1.10;1.10;;;;;;;15.41;50.95;97104.53;4886526;29;20221;-89
2021/12/30 11:27:42;;;;;;;1.03;1.03;;;;;;;19.07;50.28;97653.34;4895511;29;20201;-89
2021/12/30 11:30:11;;;;;;;0.80;0.80;;;;;;;17.18;50.20;97356.09;4900751;29;20234;-88
2021/12/30 11:32:38;;;;;;;0.90;0.90;;;;;;;19.61;50.23;97738.84;4898410;29;20243;-85
2021/12/30 11:35:06;;;;;;;0.97;0.97;;;;;;;16.49;49.78;97276.84;4903166;29;20238;-87
2021/12/30 11:37:33;;;;;;;1.00;1.00;;;;;;;19.35;50.03;97693.56;4893150;29;20230;-88
2021/12/30 11:40:12;;;;;;;1.00;1.00;;;;;;;15.46;50.09;97039.81;4919296;29;20210;-87
2021/12/30 11:42:43;;;;;;;1.00;1.00;;;;;;;13.32;50.25;96690.13;4906707;29;20250;-88